sensor_id;sensor_type;location;lat;lon;timestamp;pressure;altitude;pressure_sealevel;temperature;humidity
21828;BME280;11076;47.942;11.804;2022-07-29T00:01:52;94344.50;;;17.78;73.51
21828;BME280;11076;47.942;11.804;2022-07-29T00:06:55;94349.91;;;17.78;73.66
21828;BME280;11076;47.942;11.804;2022-07-29T00:12:00;94351.00;;;17.82;73.93
21828;BME280;11076;47.942;11.804;2022-07-29T00:17:02;94343.25;;;17.91;73.72
21828;BME280;11076;47.942;11.804;2022-07-29T00:22:05;94334.59;;;17.99;73.40
21828;BME280;11076;47.942;11.804;2022-07-29T00:27:07;94335.97;;;18.12;73.09
21828;BME280;11076;47.942;11.804;2022-07-29T00:32:10;94323.31;;;18.22;72.61
21828;BME280;11076;47.942;11.804;2022-07-29T00:37:12;94316.00;;;18.23;72.79
21828;BME280;11076;47.942;11.804;2022-07-29T00:42:15;94320.84;;;18.11;73.92
21828;BME280;11076;47.942;11.804;2022-07-29T00:47:18;94311.63;;;18.01;74.41
21828;BME280;11076;47.942;11.804;2022-07-29T00:52:21;94304.53;;;17.85;75.68
21828;BME280;11076;47.942;11.804;2022-07-29T00:57:23;94296.38;;;17.80;76.75
21828;BME280;11076;47.942;11.804;2022-07-29T01:02:26;94296.59;;;17.68;77.46
21828;BME280;11076;47.942;11.804;2022-07-29T01:07:29;94289.00;;;17.60;77.59
21828;BME280;11076;47.942;11.804;2022-07-29T01:12:33;94288.72;;;17.51;78.12
21828;BME280;11076;47.942;11.804;2022-07-29T01:18:06;94289.75;;;17.40;79.39
21828;BME280;11076;47.942;11.804;2022-07-29T01:34:35;94280.84;;;17.39;79.74
21828;BME280;11076;47.942;11.804;2022-07-29T01:39:41;94276.78;;;17.42;79.70
21828;BME280;11076;47.942;11.804;2022-07-29T01:44:53;94272.47;;;17.46;79.02
21828;BME280;11076;47.942;11.804;2022-07-29T01:49:59;94261.09;;;17.39;78.92
21828;BME280;11076;47.942;11.804;2022-07-29T01:55:07;94262.16;;;17.33;79.34
21828;BME280;11076;47.942;11.804;2022-07-29T02:00:12;94256.75;;;17.27;79.43
21828;BME280;11076;47.942;11.804;2022-07-29T02:05:19;94244.84;;;17.28;79.59
21828;BME280;11076;47.942;11.804;2022-07-29T02:10:26;94245.94;;;17.27;79.86
21828;BME280;11076;47.942;11.804;2022-07-29T02:15:32;94249.91;;;17.15;80.93
21828;BME280;11076;47.942;11.804;2022-07-29T02:20:36;94240.16;;;17.03;80.99
21828;BME280;11076;47.942;11.804;2022-07-29T02:25:41;94233.38;;;17.01;81.01
21828;BME280;11076;47.942;11.804;2022-07-29T02:30:45;94215.34;;;17.12;80.02
21828;BME280;11076;47.942;11.804;2022-07-29T02:35:49;94210.72;;;17.02;79.85
21828;BME280;11076;47.942;11.804;2022-07-29T02:40:53;94208.56;;;17.04;79.58
21828;BME280;11076;47.942;11.804;2022-07-29T02:45:56;94209.63;;;17.03;79.77
21828;BME280;11076;47.942;11.804;2022-07-29T02:51:12;94207.97;;;16.97;80.01
21828;BME280;11076;47.942;11.804;2022-07-29T02:56:16;94217.13;;;16.85;80.66
21828;BME280;11076;47.942;11.804;2022-07-29T03:01:23;94202.38;;;16.66;81.30
21828;BME280;11076;47.942;11.804;2022-07-29T03:06:26;94201.78;;;16.54;82.08
21828;BME280;11076;47.942;11.804;2022-07-29T03:11:30;94197.88;;;16.39;82.78
21828;BME280;11076;47.942;11.804;2022-07-29T03:16:33;94205.25;;;16.12;83.58
21828;BME280;11076;47.942;11.804;2022-07-29T03:21:43;94201.31;;;15.92;84.90
21828;BME280;11076;47.942;11.804;2022-07-29T03:26:45;94205.91;;;15.69;85.43
21828;BME280;11076;47.942;11.804;2022-07-29T03:31:48;94201.00;;;15.61;86.07
21828;BME280;11076;47.942;11.804;2022-07-29T03:36:50;94209.53;;;15.53;86.67
21828;BME280;11076;47.942;11.804;2022-07-29T03:41:55;94211.88;;;15.44;87.24
21828;BME280;11076;47.942;11.804;2022-07-29T03:47:01;94215.38;;;15.45;88.00
21828;BME280;11076;47.942;11.804;2022-07-29T03:52:05;94211.50;;;15.36;88.81
21828;BME280;11076;47.942;11.804;2022-07-29T03:57:10;94215.84;;;15.37;88.96
21828;BME280;11076;47.942;11.804;2022-07-29T04:02:13;94216.88;;;15.36;89.21
21828;BME280;11076;47.942;11.804;2022-07-29T04:07:18;94202.41;;;15.42;89.74
21828;BME280;11076;47.942;11.804;2022-07-29T04:12:21;94209.19;;;15.44;89.88
21828;BME280;11076;47.942;11.804;2022-07-29T04:17:23;94212.69;;;15.45;90.27
21828;BME280;11076;47.942;11.804;2022-07-29T04:22:26;94216.56;;;15.54;90.08
21828;BME280;11076;47.942;11.804;2022-07-29T04:27:28;94222.19;;;15.75;90.04
21828;BME280;11076;47.942;11.804;2022-07-29T04:32:31;94215.69;;;16.03;89.43
21828;BME280;11076;47.942;11.804;2022-07-29T04:37:33;94209.09;;;16.21;89.06
21828;BME280;11076;47.942;11.804;2022-07-29T04:42:35;94213.09;;;16.50;88.63
21828;BME280;11076;47.942;11.804;2022-07-29T04:47:38;94218.75;;;16.92;87.64
21828;BME280;11076;47.942;11.804;2022-07-29T04:52:40;94214.59;;;17.32;86.62
21828;BME280;11076;47.942;11.804;2022-07-29T04:57:43;94226.09;;;17.75;85.31
21828;BME280;11076;47.942;11.804;2022-07-29T05:02:45;94225.88;;;17.97;84.40
21828;BME280;11076;47.942;11.804;2022-07-29T05:07:47;94244.53;;;18.14;84.24
21828;BME280;11076;47.942;11.804;2022-07-29T05:12:50;94239.41;;;18.33;84.14
21828;BME280;11076;47.942;11.804;2022-07-29T05:17:52;94243.47;;;18.51;83.14
21828;BME280;11076;47.942;11.804;2022-07-29T05:22:56;94250.19;;;19.04;81.56
21828;BME280;11076;47.942;11.804;2022-07-29T05:27:59;94248.38;;;20.78;76.99
21828;BME280;11076;47.942;11.804;2022-07-29T05:33:02;94235.78;;;25.96;61.85
21828;BME280;11076;47.942;11.804;2022-07-29T05:38:04;94244.59;;;27.33;55.17
21828;BME280;11076;47.942;11.804;2022-07-29T05:43:06;94244.38;;;25.72;56.78
21828;BME280;11076;47.942;11.804;2022-07-29T05:48:09;94260.06;;;23.77;61.96
21828;BME280;11076;47.942;11.804;2022-07-29T05:53:11;94257.66;;;23.48;61.01
21828;BME280;11076;47.942;11.804;2022-07-29T05:58:14;94257.84;;;23.66;61.17
21828;BME280;11076;47.942;11.804;2022-07-29T06:03:16;94268.22;;;26.82;53.62
21828;BME280;11076;47.942;11.804;2022-07-29T06:08:19;94269.19;;;28.27;49.81
21828;BME280;11076;47.942;11.804;2022-07-29T06:13:21;94267.25;;;28.70;46.93
21828;BME280;11076;47.942;11.804;2022-07-29T06:18:24;94264.72;;;31.07;43.46
21828;BME280;11076;47.942;11.804;2022-07-29T06:23:26;94273.09;;;32.35;40.50
21828;BME280;11076;47.942;11.804;2022-07-29T06:28:28;94267.22;;;31.41;39.41
21828;BME280;11076;47.942;11.804;2022-07-29T06:33:31;94278.16;;;27.21;46.22
21828;BME280;11076;47.942;11.804;2022-07-29T06:38:34;94285.56;;;24.73;50.25
21828;BME280;11076;47.942;11.804;2022-07-29T06:43:38;94281.38;;;23.75;52.32
21828;BME280;11076;47.942;11.804;2022-07-29T06:48:44;94292.97;;;23.26;53.81
21828;BME280;11076;47.942;11.804;2022-07-29T06:53:46;94294.81;;;22.97;54.65
21828;BME280;11076;47.942;11.804;2022-07-29T06:58:48;94288.84;;;22.95;54.80
21828;BME280;11076;47.942;11.804;2022-07-29T07:03:51;94291.53;;;22.81;55.75
21828;BME280;11076;47.942;11.804;2022-07-29T07:08:54;94291.66;;;22.90;56.41
21828;BME280;11076;47.942;11.804;2022-07-29T07:13:56;94291.28;;;22.97;57.34
21828;BME280;11076;47.942;11.804;2022-07-29T07:19:01;94291.13;;;23.07;57.47
21828;BME280;11076;47.942;11.804;2022-07-29T07:24:04;94289.94;;;23.13;57.32
21828;BME280;11076;47.942;11.804;2022-07-29T07:29:07;94295.09;;;23.29;57.30
21828;BME280;11076;47.942;11.804;2022-07-29T07:34:09;94287.75;;;23.43;57.70
21828;BME280;11076;47.942;11.804;2022-07-29T07:39:12;94293.63;;;23.64;57.27
21828;BME280;11076;47.942;11.804;2022-07-29T07:44:14;94289.25;;;24.05;56.25
21828;BME280;11076;47.942;11.804;2022-07-29T07:49:17;94294.75;;;24.27;53.83
21828;BME280;11076;47.942;11.804;2022-07-29T07:54:19;94293.31;;;24.57;54.09
21828;BME280;11076;47.942;11.804;2022-07-29T07:59:22;94283.66;;;24.83;54.11
21828;BME280;11076;47.942;11.804;2022-07-29T08:04:24;94284.06;;;24.90;52.18
21828;BME280;11076;47.942;11.804;2022-07-29T08:09:29;94288.34;;;24.82;50.71
21828;BME280;11076;47.942;11.804;2022-07-29T08:14:32;94287.22;;;25.06;50.57
21828;BME280;11076;47.942;11.804;2022-07-29T08:19:35;94292.34;;;25.30;49.95
21828;BME280;11076;47.942;11.804;2022-07-29T08:24:38;94290.47;;;25.39;48.23
21828;BME280;11076;47.942;11.804;2022-07-29T08:29:54;94288.56;;;25.48;47.89
21828;BME280;11076;47.942;11.804;2022-07-29T08:34:57;94294.41;;;25.55;46.24
21828;BME280;11076;47.942;11.804;2022-07-29T08:40:00;94301.44;;;25.39;45.88
21828;BME280;11076;47.942;11.804;2022-07-29T08:45:04;94301.41;;;25.16;46.04
21828;BME280;11076;47.942;11.804;2022-07-29T08:50:08;94298.97;;;25.69;46.14
21828;BME280;11076;47.942;11.804;2022-07-29T08:55:10;94292.00;;;25.94;44.93
21828;BME280;11076;47.942;11.804;2022-07-29T09:00:13;94293.66;;;26.12;44.15
21828;BME280;11076;47.942;11.804;2022-07-29T09:05:16;94296.22;;;26.09;43.90
21828;BME280;11076;47.942;11.804;2022-07-29T09:10:18;94298.13;;;25.99;44.47
21828;BME280;11076;47.942;11.804;2022-07-29T09:15:21;94306.84;;;26.02;45.40
21828;BME280;11076;47.942;11.804;2022-07-29T09:20:24;94297.06;;;26.27;44.63
21828;BME280;11076;47.942;11.804;2022-07-29T09:25:36;94303.72;;;26.87;43.94
21828;BME280;11076;47.942;11.804;2022-07-29T09:30:50;94299.34;;;27.12;43.48
21828;BME280;11076;47.942;11.804;2022-07-29T09:36:04;94296.56;;;27.21;41.89
21828;BME280;11076;47.942;11.804;2022-07-29T09:41:06;94289.16;;;27.12;43.55
21828;BME280;11076;47.942;11.804;2022-07-29T09:46:12;94294.53;;;27.65;42.80
21828;BME280;11076;47.942;11.804;2022-07-29T09:51:20;94284.47;;;27.30;42.93
21828;BME280;11076;47.942;11.804;2022-07-29T09:56:43;94282.53;;;27.78;42.92
21828;BME280;11076;47.942;11.804;2022-07-29T10:01:46;94265.28;;;28.07;42.72
21828;BME280;11076;47.942;11.804;2022-07-29T10:06:58;94285.06;;;27.83;42.36
21828;BME280;11076;47.942;11.804;2022-07-29T10:12:09;94282.88;;;28.06;41.69
21828;BME280;11076;47.942;11.804;2022-07-29T10:17:13;94287.34;;;28.41;42.59
21828;BME280;11076;47.942;11.804;2022-07-29T10:22:16;94293.91;;;28.57;41.90
21828;BME280;11076;47.942;11.804;2022-07-29T10:27:27;94286.84;;;28.47;42.46
21828;BME280;11076;47.942;11.804;2022-07-29T10:38:06;94282.53;;;28.38;42.38
21828;BME280;11076;47.942;11.804;2022-07-29T10:43:32;94276.00;;;28.21;43.31
21828;BME280;11076;47.942;11.804;2022-07-29T10:54:09;94281.28;;;27.67;43.65
21828;BME280;11076;47.942;11.804;2022-07-29T10:59:29;94281.41;;;28.09;43.49
21828;BME280;11076;47.942;11.804;2022-07-29T11:15:15;94279.41;;;28.18;43.56
21828;BME280;11076;47.942;11.804;2022-07-29T11:25:38;94283.53;;;28.96;41.88
21828;BME280;11076;47.942;11.804;2022-07-29T11:30:52;94297.00;;;27.96;41.30
21828;BME280;11076;47.942;11.804;2022-07-29T11:36:24;94284.38;;;28.25;40.75
21828;BME280;11076;47.942;11.804;2022-07-29T11:41:27;94273.50;;;27.77;41.39
21828;BME280;11076;47.942;11.804;2022-07-29T11:46:48;94259.84;;;27.51;41.43
21828;BME280;11076;47.942;11.804;2022-07-29T11:51:55;94261.78;;;27.60;40.48
21828;BME280;11076;47.942;11.804;2022-07-29T11:56:59;94247.75;;;27.91;41.59
21828;BME280;11076;47.942;11.804;2022-07-29T12:02:01;94245.88;;;27.74;41.11
21828;BME280;11076;47.942;11.804;2022-07-29T12:07:30;94235.78;;;27.95;40.80
21828;BME280;11076;47.942;11.804;2022-07-29T12:12:33;94240.25;;;28.21;38.47
21828;BME280;11076;47.942;11.804;2022-07-29T12:17:36;94233.44;;;28.48;38.32
21828;BME280;11076;47.942;11.804;2022-07-29T12:22:40;94236.97;;;28.58;39.41
21828;BME280;11076;47.942;11.804;2022-07-29T12:27:44;94227.06;;;29.11;37.53
21828;BME280;11076;47.942;11.804;2022-07-29T12:32:47;94221.78;;;30.13;35.36
21828;BME280;11076;47.942;11.804;2022-07-29T12:37:50;94228.66;;;29.58;36.58
21828;BME280;11076;47.942;11.804;2022-07-29T12:43:15;94219.59;;;29.94;36.14
21828;BME280;11076;47.942;11.804;2022-07-29T12:48:22;94210.03;;;30.16;37.88
21828;BME280;11076;47.942;11.804;2022-07-29T12:53:34;94218.69;;;29.90;36.13
21828;BME280;11076;47.942;11.804;2022-07-29T12:58:39;94225.63;;;29.26;37.63
21828;BME280;11076;47.942;11.804;2022-07-29T13:03:44;94223.25;;;28.49;38.13
21828;BME280;11076;47.942;11.804;2022-07-29T13:14:03;94231.47;;;28.07;39.93
21828;BME280;11076;47.942;11.804;2022-07-29T13:19:11;94215.09;;;27.89;39.58
21828;BME280;11076;47.942;11.804;2022-07-29T13:24:13;94222.84;;;28.17;39.89
21828;BME280;11076;47.942;11.804;2022-07-29T13:29:19;94222.84;;;27.96;40.12
21828;BME280;11076;47.942;11.804;2022-07-29T13:34:21;94221.81;;;27.71;41.29
21828;BME280;11076;47.942;11.804;2022-07-29T13:39:26;94212.94;;;27.35;41.94
21828;BME280;11076;47.942;11.804;2022-07-29T13:44:28;94214.66;;;27.49;43.06
21828;BME280;11076;47.942;11.804;2022-07-29T13:49:31;94200.00;;;27.74;42.66
21828;BME280;11076;47.942;11.804;2022-07-29T13:54:33;94203.41;;;28.22;42.12
21828;BME280;11076;47.942;11.804;2022-07-29T13:59:42;94196.44;;;28.04;41.58
21828;BME280;11076;47.942;11.804;2022-07-29T14:04:45;94190.75;;;27.79;42.41
21828;BME280;11076;47.942;11.804;2022-07-29T14:09:47;94187.72;;;28.44;42.15
21828;BME280;11076;47.942;11.804;2022-07-29T14:14:50;94183.06;;;28.78;40.70
21828;BME280;11076;47.942;11.804;2022-07-29T14:19:52;94181.50;;;28.89;40.29
21828;BME280;11076;47.942;11.804;2022-07-29T14:24:54;94177.00;;;29.42;38.47
21828;BME280;11076;47.942;11.804;2022-07-29T14:29:57;94183.88;;;28.78;39.02
21828;BME280;11076;47.942;11.804;2022-07-29T14:34:59;94198.03;;;28.05;40.15
21828;BME280;11076;47.942;11.804;2022-07-29T14:40:03;94186.66;;;27.85;40.87
21828;BME280;11076;47.942;11.804;2022-07-29T14:45:07;94193.69;;;27.44;40.89
21828;BME280;11076;47.942;11.804;2022-07-29T14:50:10;94190.03;;;27.61;41.74
21828;BME280;11076;47.942;11.804;2022-07-29T14:55:12;94189.31;;;28.03;41.36
21828;BME280;11076;47.942;11.804;2022-07-29T15:00:16;94186.75;;;28.27;41.66
21828;BME280;11076;47.942;11.804;2022-07-29T15:05:19;94190.88;;;27.62;42.20
21828;BME280;11076;47.942;11.804;2022-07-29T15:10:21;94189.94;;;27.49;43.22
21828;BME280;11076;47.942;11.804;2022-07-29T15:15:24;94188.69;;;27.46;43.71
21828;BME280;11076;47.942;11.804;2022-07-29T15:20:27;94179.41;;;27.30;43.77
21828;BME280;11076;47.942;11.804;2022-07-29T15:25:29;94187.53;;;27.47;43.45
21828;BME280;11076;47.942;11.804;2022-07-29T15:30:32;94191.03;;;27.27;44.86
21828;BME280;11076;47.942;11.804;2022-07-29T15:35:38;94201.75;;;26.93;45.93
21828;BME280;11076;47.942;11.804;2022-07-29T15:40:41;94210.66;;;26.38;47.18
21828;BME280;11076;47.942;11.804;2022-07-29T15:45:45;94219.59;;;25.77;48.57
21828;BME280;11076;47.942;11.804;2022-07-29T15:51:06;94228.66;;;25.38;49.27
21828;BME280;11076;47.942;11.804;2022-07-29T15:56:09;94217.88;;;25.10;50.64
21828;BME280;11076;47.942;11.804;2022-07-29T16:01:11;94228.00;;;24.78;51.77
21828;BME280;11076;47.942;11.804;2022-07-29T16:06:14;94223.66;;;24.55;52.98
21828;BME280;11076;47.942;11.804;2022-07-29T16:11:16;94223.75;;;24.27;55.03
21828;BME280;11076;47.942;11.804;2022-07-29T16:16:18;94227.97;;;24.11;56.62
21828;BME280;11076;47.942;11.804;2022-07-29T16:21:21;94221.34;;;23.89;57.39
21828;BME280;11076;47.942;11.804;2022-07-29T16:26:27;94237.41;;;23.77;57.36
21828;BME280;11076;47.942;11.804;2022-07-29T16:31:29;94241.97;;;23.68;57.51
21828;BME280;11076;47.942;11.804;2022-07-29T16:36:32;94245.09;;;23.75;57.74
21828;BME280;11076;47.942;11.804;2022-07-29T16:41:34;94252.78;;;23.73;57.82
21828;BME280;11076;47.942;11.804;2022-07-29T16:46:37;94251.97;;;23.72;57.96
21828;BME280;11076;47.942;11.804;2022-07-29T16:51:39;94263.31;;;23.66;57.69
21828;BME280;11076;47.942;11.804;2022-07-29T16:56:41;94270.06;;;23.40;57.63
21828;BME280;11076;47.942;11.804;2022-07-29T17:01:44;94282.56;;;23.28;58.48
21828;BME280;11076;47.942;11.804;2022-07-29T17:06:46;94302.56;;;22.90;60.30
21828;BME280;11076;47.942;11.804;2022-07-29T17:11:50;94308.22;;;22.42;62.15
21828;BME280;11076;47.942;11.804;2022-07-29T17:16:58;94316.31;;;21.85;66.38
21828;BME280;11076;47.942;11.804;2022-07-29T17:22:03;94317.41;;;21.36;69.80
21828;BME280;11076;47.942;11.804;2022-07-29T17:27:12;94348.66;;;21.09;71.26
21828;BME280;11076;47.942;11.804;2022-07-29T17:32:15;94357.28;;;20.82;72.98
21828;BME280;11076;47.942;11.804;2022-07-29T17:37:17;94361.28;;;20.50;75.25
21828;BME280;11076;47.942;11.804;2022-07-29T17:42:20;94357.59;;;20.31;77.52
21828;BME280;11076;47.942;11.804;2022-07-29T17:47:22;94359.09;;;20.08;79.56
21828;BME280;11076;47.942;11.804;2022-07-29T17:52:25;94356.47;;;19.87;80.80
21828;BME280;11076;47.942;11.804;2022-07-29T17:57:27;94367.38;;;19.66;81.86
21828;BME280;11076;47.942;11.804;2022-07-29T18:02:29;94376.13;;;19.38;84.42
21828;BME280;11076;47.942;11.804;2022-07-29T18:07:32;94369.63;;;19.23;85.91
21828;BME280;11076;47.942;11.804;2022-07-29T18:12:34;94387.78;;;19.07;87.18
21828;BME280;11076;47.942;11.804;2022-07-29T18:17:37;94387.53;;;18.94;87.82
21828;BME280;11076;47.942;11.804;2022-07-29T18:22:40;94399.72;;;18.91;89.19
21828;BME280;11076;47.942;11.804;2022-07-29T18:27:42;94398.38;;;18.83;89.64
21828;BME280;11076;47.942;11.804;2022-07-29T18:32:45;94402.69;;;18.74;90.15
21828;BME280;11076;47.942;11.804;2022-07-29T18:37:57;94405.91;;;18.61;90.57
21828;BME280;11076;47.942;11.804;2022-07-29T18:43:00;94403.16;;;18.56;91.10
21828;BME280;11076;47.942;11.804;2022-07-29T18:48:02;94412.91;;;18.41;92.00
21828;BME280;11076;47.942;11.804;2022-07-29T18:53:05;94416.63;;;18.20;95.78
21828;BME280;11076;47.942;11.804;2022-07-29T18:58:07;94408.50;;;18.15;95.65
21828;BME280;11076;47.942;11.804;2022-07-29T19:03:10;94406.81;;;18.03;96.73
21828;BME280;11076;47.942;11.804;2022-07-29T19:08:12;94425.19;;;17.96;98.76
21828;BME280;11076;47.942;11.804;2022-07-29T19:13:15;94435.69;;;17.87;99.85
21828;BME280;11076;47.942;11.804;2022-07-29T19:18:18;94448.06;;;17.78;100.00
21828;BME280;11076;47.942;11.804;2022-07-29T19:23:20;94465.31;;;17.67;100.00
21828;BME280;11076;47.942;11.804;2022-07-29T19:28:23;94472.59;;;17.66;100.00
21828;BME280;11076;47.942;11.804;2022-07-29T19:33:25;94477.94;;;17.56;100.00
21828;BME280;11076;47.942;11.804;2022-07-29T19:38:28;94484.91;;;17.47;100.00
21828;BME280;11076;47.942;11.804;2022-07-29T19:43:31;94490.00;;;17.43;100.00
21828;BME280;11076;47.942;11.804;2022-07-29T19:48:33;94489.63;;;17.29;100.00
21828;BME280;11076;47.942;11.804;2022-07-29T19:53:36;94483.69;;;17.33;99.86
21828;BME280;11076;47.942;11.804;2022-07-29T19:58:38;94490.03;;;17.11;99.99
21828;BME280;11076;47.942;11.804;2022-07-29T20:03:41;94491.78;;;16.95;99.99
21828;BME280;11076;47.942;11.804;2022-07-29T20:08:45;94500.84;;;16.84;100.00
21828;BME280;11076;47.942;11.804;2022-07-29T20:13:48;94499.31;;;16.71;100.00
21828;BME280;11076;47.942;11.804;2022-07-29T20:18:50;94500.34;;;16.65;99.93
21828;BME280;11076;47.942;11.804;2022-07-29T20:23:53;94496.28;;;16.62;100.00
21828;BME280;11076;47.942;11.804;2022-07-29T20:28:57;94495.84;;;16.48;100.00
21828;BME280;11076;47.942;11.804;2022-07-29T20:34:00;94492.72;;;16.35;100.00
21828;BME280;11076;47.942;11.804;2022-07-29T20:39:03;94491.16;;;16.39;100.00
21828;BME280;11076;47.942;11.804;2022-07-29T20:44:05;94490.78;;;16.30;100.00
21828;BME280;11076;47.942;11.804;2022-07-29T20:49:08;94491.72;;;16.19;100.00
21828;BME280;11076;47.942;11.804;2022-07-29T20:54:11;94500.06;;;16.17;100.00
21828;BME280;11076;47.942;11.804;2022-07-29T20:59:13;94509.47;;;16.15;100.00
21828;BME280;11076;47.942;11.804;2022-07-29T21:04:16;94502.88;;;16.05;100.00
21828;BME280;11076;47.942;11.804;2022-07-29T21:09:18;94506.34;;;16.01;100.00
21828;BME280;11076;47.942;11.804;2022-07-29T21:14:21;94506.56;;;15.99;100.00
21828;BME280;11076;47.942;11.804;2022-07-29T21:19:29;94504.72;;;16.00;100.00
21828;BME280;11076;47.942;11.804;2022-07-29T21:24:31;94505.53;;;16.00;100.00
21828;BME280;11076;47.942;11.804;2022-07-29T21:29:34;94511.53;;;16.07;100.00
21828;BME280;11076;47.942;11.804;2022-07-29T21:34:36;94508.53;;;16.04;100.00
21828;BME280;11076;47.942;11.804;2022-07-29T21:39:39;94496.44;;;16.06;100.00
21828;BME280;11076;47.942;11.804;2022-07-29T21:44:41;94503.97;;;16.04;100.00
21828;BME280;11076;47.942;11.804;2022-07-29T21:49:44;94504.63;;;15.95;100.00
21828;BME280;11076;47.942;11.804;2022-07-29T21:54:48;94504.16;;;15.98;100.00
21828;BME280;11076;47.942;11.804;2022-07-29T21:59:50;94494.75;;;16.00;100.00
21828;BME280;11076;47.942;11.804;2022-07-29T22:04:53;94499.81;;;15.97;100.00
21828;BME280;11076;47.942;11.804;2022-07-29T22:09:55;94501.75;;;16.01;100.00
21828;BME280;11076;47.942;11.804;2022-07-29T22:14:58;94486.56;;;15.95;100.00
21828;BME280;11076;47.942;11.804;2022-07-29T22:20:00;94484.75;;;16.01;100.00
21828;BME280;11076;47.942;11.804;2022-07-29T22:25:04;94482.31;;;15.99;100.00
21828;BME280;11076;47.942;11.804;2022-07-29T22:30:07;94481.75;;;15.97;100.00
21828;BME280;11076;47.942;11.804;2022-07-29T22:35:09;94482.25;;;15.94;100.00
21828;BME280;11076;47.942;11.804;2022-07-29T22:40:12;94489.78;;;15.92;100.00
21828;BME280;11076;47.942;11.804;2022-07-29T22:45:14;94476.34;;;15.97;100.00
21828;BME280;11076;47.942;11.804;2022-07-29T22:50:17;94470.97;;;15.97;100.00
21828;BME280;11076;47.942;11.804;2022-07-29T22:55:19;94477.75;;;16.00;100.00
21828;BME280;11076;47.942;11.804;2022-07-29T23:00:22;94474.28;;;16.04;100.00
21828;BME280;11076;47.942;11.804;2022-07-29T23:05:24;94477.06;;;16.09;100.00
21828;BME280;11076;47.942;11.804;2022-07-29T23:10:27;94469.53;;;16.12;100.00
21828;BME280;11076;47.942;11.804;2022-07-29T23:15:29;94455.50;;;16.09;100.00
21828;BME280;11076;47.942;11.804;2022-07-29T23:20:32;94455.19;;;16.06;100.00
21828;BME280;11076;47.942;11.804;2022-07-29T23:25:34;94463.94;;;15.96;100.00
21828;BME280;11076;47.942;11.804;2022-07-29T23:30:37;94454.22;;;15.95;100.00
21828;BME280;11076;47.942;11.804;2022-07-29T23:35:40;94440.56;;;16.02;100.00
21828;BME280;11076;47.942;11.804;2022-07-29T23:40:42;94439.81;;;16.06;100.00
21828;BME280;11076;47.942;11.804;2022-07-29T23:45:44;94440.50;;;15.97;100.00
21828;BME280;11076;47.942;11.804;2022-07-29T23:50:47;94441.19;;;15.87;100.00
21828;BME280;11076;47.942;11.804;2022-07-29T23:55:49;94430.34;;;15.82;100.00
